Keewatin, MN

8:02 AM CST on February 09, 2016 (GMT -0600)
Calumet, MN | | Change Station
CLOSE
Current Station
Personal Weather Station
Location: Bovey, MN
Elevation: 1381 ft
Nearby Weather Stations
Active Advisory: Wind Chill Advisory

Elev 1381 ft 47.32 °N, 93.28 °W | Updated 10 minutes ago

Mostly Cloudy
Mostly Cloudy
-4.2 °F
Feels Like -4 °F
N
1.1
Wind Variable Wind from South

Today
High -- | Low -- °F
--% Chance of Precip.
Yesterday
High -- | Low -- °F
Precip. -- in
Pressure 30.18 in
Visibility 6.0 miles
Clouds Overcast 1300 ft
Windchill -4 °F
Dew Point -8 °F
Humidity 85%
Rainfall 0.00 in
Snow Depth Not available.
7:27 AM 5:25 PM
New Moon, 1% visible
METAR KHIB 091353Z AUTO 33015KT 6SM UP BR OVC013 M19/M22 A3006 RMK AO2 UPB45 SLP219 P0000 T11941217
Pressure 30.18 in
Visibility 6.0 miles
Clouds Overcast 1300 ft
Windchill -4 °F
Dew Point -8 °F
Humidity 85%
Rainfall 0.00 in
Snow Depth Not available.
7:27 AM 5:25 PM
New Moon, 1% visible
METAR KHIB 091353Z AUTO 33015KT 6SM UP BR OVC013 M19/M22 A3006 RMK AO2 UPB45 SLP219 P0000 T11941217

10-Day Weather Forecast

Almanac

Astronomy

Feb. 09, 2016 Rise Set
Actual Time
Civil Twilight
Nautical Twilight
Astronomical Twilight
Moon
Length of Visible Light
Length of Day
Tomorrow will be .
, % of the Moon is Illuminated

Today's Extremes

State Highs State Lows

Community

WunderPhotos

Upload Photos

1,891,597 photos uploaded!

WunderBlog® & News

Nearby

Air Quality

  Air Quality AQ Index Pollutant
Not available.

Snow Depth

Station Depth Elevation

Earthquake Activity

City Distance Mag. Time & Date
Minimum magnitude displayed is 2.5.

Coastal Water Temperatures

Place Temperature

Stations

Nearby Weather Stations

Station Location Temp. Windchill Dew Point Humidity Wind Precip. Elev Updated Type
                   

Watches & Warnings

Wind Chill Advisory
Issued: 3:06 AM CST Feb. 9, 2016 – National Weather Service

... Wind Chill Advisory remains in effect until noon CST today...

* wind chill values... as low as 25 below.

* Impacts... the cold wind chills will cause frostbite in as
little as 30 minutes to exposed skin.

Precautionary/preparedness actions...

A Wind Chill Advisory means that cold air and the wind will
combine to create low wind chills. Frost bite and hypothermia can
occur if precautions are not taken. Make sure you wear a hat and
gloves.


Huyck